Terminal Aerodrome Forecast
Issued by NWS Green Bay, WI

Home | Current Version | Previous Version | Graphics & Text | Print | Product List | Glossary On
Versions: 1 2 3 4 5 6 7 8 9 10 11 12 13 14 15 16 17 18 19 20 21 22 23 24 25 26 27 28 29 30 31 32 33 34 35 36 37 38
000
FTUS43 KGRB 032000 AAB
TAFGRB
TAF AMD
KGRB 032050Z 0321/0418 27013G22KT 4SM -SN BKN015
     FM032200 27010G19KT P6SM BKN025
     FM040300 28012G20KT P6SM SCT100
     FM041600 28014G24KT P6SM BKN030=

USA.gov is the U.S. government's official web portal to all federal, state and local government web resources and services.